Portada
METAR-TAF:

METAR-TAF

Aeropuertos :

Bou Saâda, Argelia

latitud: 35-20N, longitud: 004-12E, altitud: 461 m

Observación

El informe se hizo hace 1 hora y 32 minutos, a las 18:00 UTC
Viento 6 kt del noroeste
Temperatura 15°C
Humedad 55%
Presión 1017 hPa
Visibilidad 10 km o más
Nubes dispersas a una altura de 3000 ft
Nubes dispersas a una altura de 10000 ft

METAR: DAAD 291800Z 32006KT 9999 SCT030 SCT100 15/06 Q1017

Hora: 20:32 (19:32 UTC)

Pronóstico

El informe se hizo hace 2 horas y 32 minutos, a las 17:00 UTC
Pronóstico válido del 29 a las 18 UTC al 30 a las 03 UTC
Viento 14 kt del oeste-noroeste
Visibilidad 10 km o más
Nubes dispersas a una altura de 3000 ft
Nubes dispersas a una altura de 10000 ft
Evolucionando progresivamente
del 29 a las 20 UTC al 29 a las 23 UTC
Viento 2 kt con dirección variable

TAF: DAAD 291700Z 2918/3003 30014KT 9999 SCT030 SCT100 BECMG 2920/2923 VRB02KT

Observaciones y pronósticos meteorológicos de más de 4000 aeropuertos (mensajes METAR y TAF).

Los puntos amarillos y rojos representan las estaciones disponibles.

Ponga el ratón en el punto deseado para ver el nombre de la estación.

Haga clic para ver las observaciones y los pronósticos meteorológicos.

Para cambiar el mapa : haga clic en los botones verdes con una cruz de color negro para hacer un zoom, en el botón verde con un guión para alejar o en las flechas verdes para mapas adyacentes.


METAR-TAF: